Thunder radar more information blitzortung!


Radar de pluja more information rain snow radar


Visita la nostra xarxa de llocs de meteo:

Template documentation
and downloads

And another site



No particular awareness of the weather is required.    There are no Weather-warnings

Pagina Historial Weather Underground text

Diari Resum Desembre 27, 2017 Unitats:  Mètric    Imperial   Tant
« Previous Dia
SegĂźent Dia »
Diari Setmana Mensual Anual Personalitzada
  Maxima: Minima: Media:
Temperatura: -17.8 °C -15.2 °C -13.2 °C
Punt de rosada: -17.8 °C -19.6 °C -18.2 °C
Humitat: Humidity % 42 % 54 %
Wind Speed: 0 km/h 0 km/h 25.1 km/h
RĂ fegues de vent: 0 km/h - -
Vent:- - West
Pression baro: 0 hPa 33751.6 hPa -
Precipitacions: 0 mm    
Historical Graphs
 
 
Dades de taula per Desembre 27, 2017
Temps Temperatura Punt de rosada Pression baro Vent Wind Speed RĂ fegues de vent Humitat Rainfall Rate (Hourly)
-17.8 °C -17.8 °C 0 hPa Calm     Humidity % 0 mm
00:00 -14.8 °C -16.5 °C 33751.6 hPa Calm   5.1 km/h 81 % 0 mm
00:03 -14.7 °C -17.7 °C 34029.3 hPa WSW 15 km/h 15 km/h 68 % 0 mm
00:05 -14.7 °C -17.7 °C 34029.3 hPa WSW 11.9 km/h 11.9 km/h 68 % 0 mm
00:10 -14.8 °C -16.4 °C 33788.9 hPa Calm   2.6 km/h 81 % 0 mm
00:20 -14.9 °C -16.6 °C 33751.6 hPa Calm   2.6 km/h 80 % 0 mm
00:30 -14.8 °C -16.5 °C 33751.6 hPa SW 2.6 km/h 2.6 km/h 81 % 0 mm
00:40 -14.8 °C -16.5 °C 33788.9 hPa SW 2.6 km/h 2.6 km/h 81 % 0 mm
00:50 -14.9 °C -16.6 °C 33788.9 hPa SW 2.6 km/h 5.1 km/h 81 % 0 mm
01:00 -15 °C -16.7 °C 33788.9 hPa Calm   2.6 km/h 81 % 0 mm
01:10 -14.9 °C -16.6 °C 33751.6 hPa Calm   2.6 km/h 81 % 0 mm
01:20 -15 °C -16.7 °C 33751.6 hPa NW 2.6 km/h 5.1 km/h 81 % 0 mm
01:30 -15 °C -16.7 °C 33751.6 hPa North 2.6 km/h 7.7 km/h 81 % 0 mm
01:40 -14.9 °C -16.7 °C 33751.6 hPa NW 2.6 km/h 5.1 km/h 80 % 0 mm
01:50 -14.9 °C -16.6 °C 33788.9 hPa Calm   2.6 km/h 81 % 0 mm
02:00 -14.9 °C -16.6 °C 33788.9 hPa Calm   2.6 km/h 81 % 0 mm
02:10 -14.9 °C -16.6 °C 33788.9 hPa Calm   7.7 km/h 80 % 0 mm
02:20 -15.1 °C -16.8 °C 33788.9 hPa WNW 2.6 km/h 5.1 km/h 80 % 0 mm
02:30 -15 °C -16.8 °C 33788.9 hPa West 5.1 km/h 7.7 km/h 80 % 0 mm
02:40 -14.9 °C -16.8 °C 33788.9 hPa WNW 7.7 km/h 7.7 km/h 79 % 0 mm
02:50 -14.8 °C -16.7 °C 33788.9 hPa North 5.1 km/h 7.7 km/h 79 % 0 mm
03:00 -14.6 °C -16.5 °C 33788.9 hPa WNW 7.7 km/h 12.9 km/h 79 % 0 mm
03:10 -14.4 °C -16.3 °C 33788.9 hPa WNW 7.7 km/h 12.9 km/h 78 % 0 mm
03:20 -14.2 °C -16.3 °C 33788.9 hPa West 7.7 km/h 15.6 km/h 77 % 0 mm
03:40 -13.9 °C -16.2 °C 33788.9 hPa West 15.6 km/h 15.6 km/h 75 % 0 mm
03:50 -13.6 °C -16.3 °C 33788.9 hPa West 12.9 km/h 51.8 km/h 71 % 0 mm
04:00 -13.4 °C -16.3 °C 33788.9 hPa West 20.8 km/h 20.8 km/h 69 % 0 mm
04:10 -13.2 °C -16.3 °C 33788.9 hPa WNW 15.6 km/h 25.9 km/h 68 % 0 mm
04:20 -13 °C -16.4 °C 33788.9 hPa WNW 15.6 km/h 31.1 km/h 65 % 0 mm
04:40 -12.7 °C -16.5 °C 33788.9 hPa WSW 20.8 km/h 31.1 km/h 62 % 0 mm
04:50 -12.5 °C -16.5 °C 33788.9 hPa West 7.7 km/h 20.8 km/h 61 % 0 mm
05:00 -12.4 °C -16.6 °C 33788.9 hPa West 23.3 km/h 38.8 km/h 59 % 0 mm
07:30 -11.6 °C -17 °C 33751.6 hPa West 36.2 km/h 36.2 km/h 51 % 0 mm
07:40 -11.4 °C -16.9 °C 33751.6 hPa West 25.9 km/h 69.8 km/h 51 % 0 mm
07:50 -11.4 °C -17.1 °C 33788.9 hPa WSW 38.8 km/h 57 km/h 50 % 0 mm
08:00 -11.3 °C -16.9 °C 33788.9 hPa West 31.1 km/h 41.4 km/h 50 % 0 mm
08:10 -11.4 °C -17 °C 33822.8 hPa West 20.8 km/h 62.1 km/h 50 % 0 mm
11:09 -12.3 °C -16.8 °C 33788.9 hPa WSW 26.9 km/h 26.9 km/h 57 % 0 mm
11:10 -12.3 °C -16.8 °C 33788.9 hPa SSW 38.8 km/h 38.8 km/h 57 % 0 mm
11:12 -12.3 °C -16.8 °C 33788.9 hPa WNW 38.8 km/h 38.8 km/h 57 % 0 mm
11:15 -12.2 °C -16.6 °C 33788.9 hPa West 26.9 km/h 26.9 km/h 58 % 0 mm
11:18 -12.2 °C -16.7 °C 33788.9 hPa WNW 23.8 km/h 23.8 km/h 57 % 0 mm
11:20 -12.2 °C -16.7 °C 33788.9 hPa ENE 22.5 km/h 22.5 km/h 57 % 0 mm
11:25 -12.2 °C -16.9 °C 33788.9 hPa WNW 29.8 km/h 29.8 km/h 56 % 0 mm
11:26 -12.2 °C -16.9 °C 33788.9 hPa WSW 29.8 km/h 29.8 km/h 56 % 0 mm
11:31 -12.2 °C -16.8 °C 33788.9 hPa ENE 38.8 km/h 38.8 km/h 56 % 0 mm
11:32 -12.2 °C -16.8 °C 33788.9 hPa West 33.2 km/h 33.2 km/h 56 % 0 mm
11:34 -12.2 °C -16.9 °C 33788.9 hPa West 38.8 km/h 38.8 km/h 56 % 0 mm
11:39 -12.1 °C -16.8 °C 33822.8 hPa WSW 35.7 km/h 35.7 km/h 56 % 0 mm
11:40 -12.1 °C -16.9 °C 33822.8 hPa West 20.8 km/h 38.8 km/h 55 % 0 mm
11:41 -12.1 °C -16.9 °C 33822.8 hPa WNW 38.8 km/h 38.8 km/h 55 % 0 mm
11:46 -11.9 °C -16.6 °C 33822.8 hPa WNW 26.9 km/h 26.9 km/h 56 % 0 mm
11:47 -12 °C -16.8 °C 33822.8 hPa WNW 26.9 km/h 26.9 km/h 55 % 0 mm
11:48 -12 °C -16.8 °C 33822.8 hPa WNW 32.8 km/h 32.8 km/h 55 % 0 mm
11:53 -12 °C -16.8 °C 33822.8 hPa WSW 26.9 km/h 26.9 km/h 55 % 0 mm
11:54 -12 °C -16.8 °C 33822.8 hPa WSW 26.9 km/h 26.9 km/h 55 % 0 mm
11:59 -12 °C -16.8 °C 33822.8 hPa WSW 26.9 km/h 26.9 km/h 55 % 0 mm
12:04 -11.9 °C -16.9 °C 33822.8 hPa WNW 29.8 km/h 29.8 km/h 54 % 0 mm
12:09 -11.9 °C -16.8 °C 33822.8 hPa SW 32.8 km/h 32.8 km/h 54 % 0 mm
12:10 -11.9 °C -16.9 °C 33822.8 hPa WNW 32.8 km/h 32.8 km/h 54 % 0 mm
12:15 -11.9 °C -16.8 °C 33822.8 hPa West 20.9 km/h 20.9 km/h 54 % 0 mm
12:20 -11.8 °C -16.9 °C 33822.8 hPa WNW 62.6 km/h 62.6 km/h 53 % 0 mm
12:25 -11.8 °C -16.9 °C 33788.9 hPa WNW 53.6 km/h 53.6 km/h 53 % 0 mm
12:30 -11.8 °C -16.9 °C 33788.9 hPa West 38.8 km/h 38.8 km/h 53 % 0 mm
12:31 -11.7 °C -16.8 °C 33788.9 hPa West 32.8 km/h 32.8 km/h 53 % 0 mm
12:36 -11.7 °C -17 °C 33788.9 hPa North 38.8 km/h 38.8 km/h 52 % 0 mm
12:39 -11.7 °C -17 °C 33788.9 hPa WSW 44.7 km/h 44.7 km/h 52 % 0 mm
12:41 -11.7 °C -17 °C 33788.9 hPa NW 62.6 km/h 62.6 km/h 52 % 0 mm
12:46 -11.7 °C -16.9 °C 33788.9 hPa WSW 43.5 km/h 43.5 km/h 52 % 0 mm
12:47 -11.7 °C -16.9 °C 33788.9 hPa SW 44.7 km/h 44.7 km/h 52 % 0 mm
12:52 -11.7 °C -16.9 °C 33788.9 hPa SW 65.5 km/h 65.5 km/h 52 % 0 mm
12:56 -11.6 °C -16.9 °C 33751.6 hPa West 38.8 km/h 38.8 km/h 52 % 0 mm
13:01 -11.6 °C -16.9 °C 33751.6 hPa West 44.7 km/h 44.7 km/h 52 % 0 mm
13:05 -11.6 °C -16.8 °C 33751.6 hPa West 33.6 km/h 33.6 km/h 52 % 0 mm
13:08 -11.6 °C -16.8 °C 33751.6 hPa SW 26.9 km/h 26.9 km/h 52 % 0 mm
13:13 -11.6 °C -17.1 °C 33751.6 hPa NW 71.5 km/h 71.5 km/h 51 % 0 mm
13:14 -11.6 °C -17.1 °C 33751.6 hPa West 53.6 km/h 53.6 km/h 51 % 0 mm
13:19 -11.6 °C -17 °C 33751.6 hPa WSW 33.2 km/h 33.2 km/h 51 % 0 mm
14:13 -11.4 °C -17 °C 33788.9 hPa WNW 26.9 km/h 26.9 km/h 50 % 0 mm
14:14 -11.3 °C -16.8 °C 33788.9 hPa WSW 35.7 km/h 35.7 km/h 51 % 0 mm
14:18 -11.4 °C -17 °C 33788.9 hPa WSW 47.6 km/h 47.6 km/h 50 % 0 mm
14:20 -11.4 °C -17 °C 33788.9 hPa WSW 56.6 km/h 56.6 km/h 50 % 0 mm
14:25 -11.3 °C -16.8 °C 33788.9 hPa WNW 20.9 km/h 25.9 km/h 51 % 0 mm
14:26 -11.3 °C -16.8 °C 33788.9 hPa WSW 44.7 km/h 44.7 km/h 51 % 0 mm
14:31 -11.2 °C -16.7 °C 33788.9 hPa SSE 32.8 km/h 32.8 km/h 51 % 0 mm
14:33 -11.2 °C -16.7 °C 33788.9 hPa West 38.8 km/h 38.8 km/h 51 % 0 mm
14:37 -11.2 °C -16.8 °C 33788.9 hPa WSW 38.8 km/h 38.8 km/h 50 % 0 mm
14:39 -11.2 °C -16.8 °C 33788.9 hPa NW 56.6 km/h 56.6 km/h 50 % 0 mm
14:44 -11.2 °C -16.8 °C 33788.9 hPa WSW 29.8 km/h 29.8 km/h 50 % 0 mm
14:50 -11.2 °C -16.8 °C 33788.9 hPa West 18.2 km/h 54.4 km/h 50 % 0 mm
14:51 -11.2 °C -16.8 °C 33788.9 hPa WNW 39.9 km/h 39.9 km/h 50 % 0 mm
14:56 -11.2 °C -16.8 °C 33822.8 hPa WSW 35.7 km/h 35.7 km/h 50 % 0 mm
14:58 -11.1 °C -16.7 °C 33822.8 hPa West 26.9 km/h 26.9 km/h 50 % 0 mm
14:59 -11.1 °C -16.7 °C 33822.8 hPa West 33.6 km/h 33.6 km/h 50 % 0 mm
15:04 -11.1 °C -16.7 °C 33822.8 hPa NW 41.7 km/h 41.7 km/h 50 % 0 mm
15:06 -11.1 °C -16.7 °C 33822.8 hPa WSW 32.8 km/h 32.8 km/h 50 % 0 mm
15:07 -11.1 °C -16.7 °C 33822.8 hPa WSW 32.8 km/h 32.8 km/h 50 % 0 mm
15:12 -11.1 °C -16.7 °C 33822.8 hPa West 27.2 km/h 27.2 km/h 50 % 0 mm
15:15 -11.1 °C -16.7 °C 33822.8 hPa WSW 27.7 km/h 27.7 km/h 50 % 0 mm
15:18 -11.1 °C -16.9 °C 33822.8 hPa WNW 20.9 km/h 20.9 km/h 49 % 0 mm
15:22 -11.1 °C -17.1 °C 33822.8 hPa West 26.9 km/h 26.9 km/h 48 % 0 mm
15:23 -11.1 °C -16.9 °C 33822.8 hPa WSW 20.9 km/h 20.9 km/h 49 % 0 mm
15:28 -11.1 °C -17.1 °C 33822.8 hPa SE 35.7 km/h 35.7 km/h 48 % 0 mm
15:29 -11.1 °C -17.1 °C 33822.8 hPa WSW 27.2 km/h 27.2 km/h 48 % 0 mm
15:31 -11.1 °C -17.1 °C 33822.8 hPa WNW 38.8 km/h 38.8 km/h 48 % 0 mm
15:34 -11.1 °C -17.2 °C 33822.8 hPa SW 38.8 km/h 38.8 km/h 47 % 0 mm
15:39 -11.2 °C -17.3 °C 33856.6 hPa WNW 32.8 km/h 32.8 km/h 47 % 0 mm
15:40 -11.2 °C -17.3 °C 33856.6 hPa West 18.2 km/h 33.6 km/h 47 % 0 mm
15:42 -11.2 °C -17.3 °C 33856.6 hPa WNW 35.7 km/h 35.7 km/h 47 % 0 mm
15:45 -11.2 °C -17.4 °C 33856.6 hPa West 32.8 km/h 32.8 km/h 46 % 0 mm
15:50 -11.2 °C -17.7 °C 33856.6 hPa WSW 32.8 km/h 32.8 km/h 45 % 0 mm
15:51 -11.2 °C -17.7 °C 33856.6 hPa WSW 32.8 km/h 32.8 km/h 45 % 0 mm
15:55 -11.2 °C -17.7 °C 33856.6 hPa WSW 41.7 km/h 41.7 km/h 45 % 0 mm
15:56 -11.2 °C -17.7 °C 33856.6 hPa WSW 41.7 km/h 41.7 km/h 45 % 0 mm
16:01 -11.2 °C -17.8 °C 33856.6 hPa West 51.5 km/h 51.5 km/h 44 % 0 mm
16:03 -11.2 °C -18 °C 33856.6 hPa WSW 38.8 km/h 38.8 km/h 43 % 0 mm
16:08 -11.2 °C -18 °C 33856.6 hPa WSW 35.7 km/h 35.7 km/h 43 % 0 mm
16:09 -11.2 °C -18 °C 33856.6 hPa West 35.7 km/h 35.7 km/h 43 % 0 mm
16:10 -11.2 °C -18 °C 33856.6 hPa West 32.8 km/h 32.8 km/h 43 % 0 mm
16:14 -11.3 °C -18.1 °C 33856.6 hPa WSW 20.9 km/h 20.9 km/h 43 % 0 mm
16:15 -11.3 °C -18.1 °C 33856.6 hPa West 26.9 km/h 26.9 km/h 43 % 0 mm
16:19 -11.3 °C -18.1 °C 33856.6 hPa WNW 26.9 km/h 26.9 km/h 43 % 0 mm
16:25 -11.4 °C -18.2 °C 33856.6 hPa WSW 32.8 km/h 32.8 km/h 43 % 0 mm
16:30 -11.5 °C -18.2 °C 33856.6 hPa West 44.7 km/h 44.7 km/h 43 % 0 mm
16:31 -11.5 °C -18.2 °C 33856.6 hPa WNW 44.7 km/h 44.7 km/h 43 % 0 mm
16:36 -11.6 °C -18.3 °C 33856.6 hPa SW 22.5 km/h 22.5 km/h 43 % 0 mm
16:38 -11.6 °C -18.3 °C 33822.8 hPa WNW 17.9 km/h 17.9 km/h 43 % 0 mm
16:43 -11.7 °C -18.4 °C 33822.8 hPa NW 23.8 km/h 23.8 km/h 43 % 0 mm
16:48 -11.7 °C -18.4 °C 33822.8 hPa SSW 35.7 km/h 35.7 km/h 43 % 0 mm
16:53 -11.8 °C -18.6 °C 33890.5 hPa WNW 26.9 km/h 26.9 km/h 43 % 0 mm
16:54 -11.9 °C -18.6 °C 33890.5 hPa SW 20.9 km/h 20.9 km/h 43 % 0 mm
16:57 -11.9 °C -18.7 °C 33890.5 hPa NW 23.8 km/h 23.8 km/h 43 % 0 mm
17:02 -12 °C -18.5 °C 33890.5 hPa NW 44.7 km/h 44.7 km/h 44 % 0 mm
17:03 -12 °C -18.5 °C 33890.5 hPa NW 44.7 km/h 44.7 km/h 44 % 0 mm
17:08 -12.1 °C -18.6 °C 33890.5 hPa WSW 29.8 km/h 29.8 km/h 44 % 0 mm
17:10 -12.1 °C -18.7 °C 33890.5 hPa West 15 km/h 17.4 km/h 44 % 0 mm
17:15 -12.2 °C -18.7 °C 33890.5 hPa WSW 15 km/h 16.1 km/h 44 % 0 mm
17:17 -12.2 °C -18.7 °C 33890.5 hPa WSW 17.9 km/h 17.9 km/h 44 % 0 mm
17:20 -12.3 °C -18.8 °C 33890.5 hPa West 35.7 km/h 35.7 km/h 44 % 0 mm
17:25 -12.3 °C -19 °C 33890.5 hPa West 35.7 km/h 35.7 km/h 43 % 0 mm
17:26 -12.3 °C -19 °C 33890.5 hPa WSW 44.7 km/h 44.7 km/h 43 % 0 mm
17:28 -12.4 °C -19.1 °C 33890.5 hPa WSW 17.9 km/h 17.9 km/h 43 % 0 mm
17:33 -12.4 °C -19.1 °C 33890.5 hPa West 32.8 km/h 32.8 km/h 43 % 0 mm
17:34 -12.5 °C -19.2 °C 33890.5 hPa West 32.8 km/h 32.8 km/h 43 % 0 mm
17:39 -12.6 °C -19.4 °C 33924.3 hPa WSW 38.8 km/h 38.8 km/h 42 % 0 mm
17:44 -12.6 °C -19.4 °C 33924.3 hPa West 23.8 km/h 23.8 km/h 42 % 0 mm
17:45 -12.6 °C -19.4 °C 33924.3 hPa North 34.1 km/h 34.1 km/h 42 % 0 mm
17:50 -12.7 °C -19.6 °C 33924.3 hPa WSW 20.9 km/h 20.9 km/h 42 % 0 mm
17:55 -12.8 °C -19.6 °C 33890.5 hPa WSW 32.8 km/h 32.8 km/h 42 % 0 mm
17:57 -12.8 °C -19.6 °C 33890.5 hPa WSW 15 km/h 17.4 km/h 42 % 0 mm
18:02 -12.9 °C -19.6 °C 33890.5 hPa West 20.9 km/h 20.9 km/h 43 % 0 mm
18:07 -12.9 °C -19.6 °C 33890.5 hPa WNW 20.9 km/h 20.9 km/h 43 % 0 mm
18:08 -12.9 °C -19.6 °C 33890.5 hPa West 20.9 km/h 20.9 km/h 43 % 0 mm
18:13 -13 °C -19.6 °C 33924.3 hPa West 20.9 km/h 20.9 km/h 43 % 0 mm
18:16 -13.1 °C -19.5 °C 33924.3 hPa WNW 17.9 km/h 17.9 km/h 44 % 0 mm
18:18 -13.1 °C -19.5 °C 33924.3 hPa SW 29.8 km/h 29.8 km/h 44 % 0 mm
18:20 -15 °C -19.1 °C 34063.2 hPa West 18.2 km/h 18.2 km/h 59 % 0 mm
18:23 -13.1 °C -19.6 °C 33924.3 hPa West 20.9 km/h 20.9 km/h 44 % 0 mm
18:24 -13.1 °C -19.6 °C 33924.3 hPa WSW 41.7 km/h 41.7 km/h 44 % 0 mm
18:29 -13.2 °C -19.4 °C 33924.3 hPa West 20.9 km/h 20.9 km/h 45 % 0 mm
18:30 -15.1 °C -19.1 °C 34063.2 hPa West 12.9 km/h 18.2 km/h 59 % 0 mm
18:34 -13.2 °C -19.5 °C 33924.3 hPa WNW 38.8 km/h 38.8 km/h 45 % 0 mm
18:35 -13.2 °C -19.5 °C 33924.3 hPa WNW 38.8 km/h 38.8 km/h 45 % 0 mm
18:36 -13.3 °C -19.5 °C 33924.3 hPa WNW 20.9 km/h 20.9 km/h 45 % 0 mm
18:40 -13.3 °C -19.3 °C 33958.2 hPa WSW 25.9 km/h 25.9 km/h 46 % 0 mm
18:45 -13.3 °C -19.4 °C 33958.2 hPa WSW 20.9 km/h 20.9 km/h 46 % 0 mm
18:50 -13.4 °C -19.4 °C 33958.2 hPa WSW 32.8 km/h 32.8 km/h 46 % 0 mm
18:51 -13.4 °C -19.4 °C 33958.2 hPa West 32.3 km/h 32.3 km/h 46 % 0 mm
18:56 -13.4 °C -19.4 °C 33958.2 hPa WSW 23.8 km/h 23.8 km/h 46 % 0 mm
19:00 -15.2 °C -19 °C 34063.2 hPa West 12.9 km/h 15.6 km/h 61 % 0 mm
19:01 -13.4 °C -19.5 °C 33958.2 hPa SW 15 km/h 15 km/h 46 % 0 mm
19:02 -13.4 °C -19.5 °C 33958.2 hPa WSW 29.8 km/h 29.8 km/h 46 % 0 mm
19:07 -13.4 °C -19.5 °C 33958.2 hPa WSW 32.8 km/h 32.8 km/h 46 % 0 mm
19:09 -13.5 °C -19.6 °C 33992.1 hPa WSW 20.9 km/h 20.9 km/h 46 % 0 mm
19:10 -15.2 °C -19 °C 34029.3 hPa WSW 7.7 km/h 15.6 km/h 61 % 0 mm
19:14 -13.6 °C -19.4 °C 33992.1 hPa West 32.8 km/h 32.8 km/h 47 % 0 mm
19:16 -13.6 °C -19.4 °C 33992.1 hPa WNW 23.8 km/h 23.8 km/h 47 % 0 mm
19:20 -13.6 °C -19.4 °C 33992.1 hPa WNW 29.8 km/h 29.8 km/h 47 % 0 mm
19:25 -13.6 °C -19.5 °C 33992.1 hPa WSW 15 km/h 16.6 km/h 47 % 0 mm
19:26 -13.6 °C -19.5 °C 33992.1 hPa WSW 23.8 km/h 23.8 km/h 47 % 0 mm
19:27 -13.6 °C -19.5 °C 33992.1 hPa WSW 25.4 km/h 25.4 km/h 47 % 0 mm
19:30 -15.1 °C -18.9 °C 34063.2 hPa WSW 7.7 km/h 15.6 km/h 61 % 0 mm
19:32 -13.6 °C -19.5 °C 33992.1 hPa WSW 32.8 km/h 32.8 km/h 47 % 0 mm
19:35 -13.6 °C -19.5 °C 33992.1 hPa West 29.8 km/h 29.8 km/h 47 % 0 mm
19:38 -13.7 °C -19.4 °C 33992.1 hPa West 35.7 km/h 35.7 km/h 48 % 0 mm
19:43 -13.7 °C -19.4 °C 33992.1 hPa West 20.9 km/h 20.9 km/h 48 % 0 mm
19:46 -13.7 °C -19.4 °C 33992.1 hPa WSW 31.9 km/h 31.9 km/h 48 % 0 mm
19:48 -13.7 °C -19.4 °C 33992.1 hPa West 38.8 km/h 38.8 km/h 48 % 0 mm
19:53 -13.7 °C -19.4 °C 33992.1 hPa WSW 26.9 km/h 26.9 km/h 48 % 0 mm
19:58 -13.7 °C -19.3 °C 34029.3 hPa WSW 32.8 km/h 32.8 km/h 49 % 0 mm
19:59 -13.7 °C -19.3 °C 34029.3 hPa West 29.8 km/h 29.8 km/h 49 % 0 mm
20:00 -15 °C -18.7 °C 34029.3 hPa SW 5.1 km/h 15.6 km/h 62 % 0 mm
20:04 -13.8 °C -19.3 °C 34029.3 hPa West 20.9 km/h 20.9 km/h 49 % 0 mm
20:05 -13.8 °C -19.4 °C 34029.3 hPa WSW 17.9 km/h 17.9 km/h 49 % 0 mm
20:09 -13.8 °C -19.4 °C 34029.3 hPa WSW 26.9 km/h 26.9 km/h 49 % 0 mm
20:14 -13.9 °C -19.4 °C 34029.3 hPa WNW 20.9 km/h 20.9 km/h 49 % 0 mm
20:15 -13.9 °C -19.4 °C 34029.3 hPa WSW 20.9 km/h 20.9 km/h 49 % 0 mm
20:18 -13.9 °C -19.3 °C 34029.3 hPa WSW 26.9 km/h 26.9 km/h 50 % 0 mm
20:20 -15 °C -18.7 °C 33992.1 hPa WSW 12.9 km/h 18.2 km/h 62 % 0 mm
20:23 -13.9 °C -19.3 °C 34063.2 hPa WNW 17.9 km/h 17.9 km/h 50 % 0 mm
20:24 -13.9 °C -19.3 °C 34063.2 hPa WNW 27.7 km/h 27.7 km/h 50 % 0 mm
20:25 -13.9 °C -19.3 °C 34063.2 hPa West 26.9 km/h 26.9 km/h 50 % 0 mm
20:30 -14 °C -19.4 °C 34063.2 hPa WNW 19.2 km/h 19.2 km/h 50 % 0 mm
20:35 -14.1 °C -19.4 °C 34063.2 hPa WSW 15 km/h 15 km/h 50 % 0 mm
20:38 -14.1 °C -19.3 °C 34029.3 hPa WSW 20.9 km/h 20.9 km/h 51 % 0 mm
20:40 -15.1 °C -18.8 °C 33992.1 hPa WSW 5.1 km/h 7.7 km/h 62 % 0 mm
20:42 -14.1 °C -19.3 °C 34029.3 hPa West 23.8 km/h 23.8 km/h 51 % 0 mm
20:46 -14.2 °C -19.4 °C 34029.3 hPa SW 26.9 km/h 26.9 km/h 51 % 0 mm
20:47 -14.2 °C -19.4 °C 34029.3 hPa WSW 35.7 km/h 35.7 km/h 51 % 0 mm
20:50 -15.2 °C -18.8 °C 33992.1 hPa WSW 7.7 km/h 7.7 km/h 62 % 0 mm
20:52 -14.2 °C -19.4 °C 34029.3 hPa West 15 km/h 15.6 km/h 51 % 0 mm
20:53 -14.2 °C -19.4 °C 34029.3 hPa WNW 15 km/h 15.6 km/h 51 % 0 mm
20:58 -14.2 °C -19.3 °C 34063.2 hPa SW 23.8 km/h 23.8 km/h 52 % 0 mm
21:00 -15.2 °C -18.8 °C 33992.1 hPa WSW 12.9 km/h 12.9 km/h 62 % 0 mm
21:03 -14.3 °C -19.3 °C 34063.2 hPa WSW 17.9 km/h 17.9 km/h 52 % 0 mm
21:05 -14.3 °C -19.3 °C 34063.2 hPa WNW 22 km/h 22 km/h 52 % 0 mm
21:10 -14.3 °C -19.4 °C 34063.2 hPa WSW 20.9 km/h 20.9 km/h 52 % 0 mm
21:14 -14.3 °C -19.4 °C 34063.2 hPa WSW 23.8 km/h 23.8 km/h 52 % 0 mm
21:19 -14.4 °C -19.3 °C 34063.2 hPa West 29.8 km/h 29.8 km/h 53 % 0 mm
21:20 -14.4 °C -19.3 °C 34063.2 hPa WNW 29.8 km/h 29.8 km/h 53 % 0 mm
21:25 -14.4 °C -19.3 °C 34063.2 hPa WSW 29.8 km/h 29.8 km/h 53 % 0 mm
21:30 -14.4 °C -19.4 °C 34063.2 hPa WNW 20.9 km/h 20.9 km/h 53 % 0 mm
21:31 -14.4 °C -19.4 °C 34063.2 hPa WSW 20.9 km/h 20.9 km/h 53 % 0 mm
21:36 -14.5 °C -19.4 °C 34063.2 hPa West 32.8 km/h 32.8 km/h 53 % 0 mm
21:38 -14.5 °C -19.3 °C 34063.2 hPa WNW 31.4 km/h 31.4 km/h 54 % 0 mm
21:43 -14.6 °C -19.3 °C 34063.2 hPa West 26.9 km/h 26.9 km/h 54 % 0 mm
21:46 -14.6 °C -19.3 °C 34063.2 hPa WNW 15 km/h 15 km/h 54 % 0 mm
21:48 -14.6 °C -19.3 °C 34063.2 hPa WSW 32.8 km/h 32.8 km/h 54 % 0 mm
21:50 -15.1 °C -18.8 °C 34029.3 hPa West 12.9 km/h 15.6 km/h 62 % 0 mm
21:53 -14.6 °C -19.3 °C 34063.2 hPa SW 26.9 km/h 26.9 km/h 54 % 0 mm
21:54 -14.6 °C -19.3 °C 34029.3 hPa WSW 26.9 km/h 26.9 km/h 54 % 0 mm
21:59 -14.6 °C -19.4 °C 34029.3 hPa ENE 17.9 km/h 17.9 km/h 54 % 0 mm
22:00 -15 °C -18.7 °C 34029.3 hPa West 7.7 km/h 12.9 km/h 62 % 0 mm
22:03 -14.6 °C -19.4 °C 34029.3 hPa West 20.9 km/h 20.9 km/h 54 % 0 mm
22:06 -14.7 °C -19.4 °C 34029.3 hPa WNW 15 km/h 15 km/h 54 % 0 mm
22:08 -14.7 °C -19.3 °C 34063.2 hPa West 20.9 km/h 20.9 km/h 55 % 0 mm
22:10 -15 °C -18.7 °C 34029.3 hPa WSW 7.7 km/h 12.9 km/h 62 % 0 mm
22:12 -14.7 °C -19.3 °C 34063.2 hPa West 20.9 km/h 20.9 km/h 55 % 0 mm
22:14 -14.7 °C -19.3 °C 34063.2 hPa WNW 14 km/h 14.5 km/h 55 % 0 mm
22:19 -14.7 °C -19.3 °C 34063.2 hPa NW 26.9 km/h 26.9 km/h 55 % 0 mm
22:20 -15 °C -18.7 °C 34029.3 hPa WSW 12.9 km/h 15.6 km/h 62 % 0 mm
22:21 -14.7 °C -19.3 °C 34063.2 hPa SW 19.2 km/h 19.2 km/h 55 % 0 mm
22:25 -14.7 °C -19.3 °C 34063.2 hPa West 32.8 km/h 32.8 km/h 55 % 0 mm
22:27 -14.8 °C -19.4 °C 34063.2 hPa WNW 20.9 km/h 20.9 km/h 55 % 0 mm
22:30 -15 °C -18.7 °C 34029.3 hPa WSW 12.9 km/h 15.6 km/h 62 % 0 mm
22:31 -14.8 °C -19.3 °C 34063.2 hPa West 15 km/h 15 km/h 56 % 0 mm
22:34 -14.8 °C -19.3 °C 34063.2 hPa SW 29.8 km/h 29.8 km/h 56 % 0 mm
22:36 -14.8 °C -19.3 °C 34063.2 hPa West 23.8 km/h 23.8 km/h 56 % 0 mm
22:40 -15.1 °C -18.8 °C 34029.3 hPa WSW 5.1 km/h 10.3 km/h 62 % 0 mm
22:41 -14.8 °C -19.3 °C 34063.2 hPa WNW 15.3 km/h 15.3 km/h 56 % 0 mm
22:42 -14.8 °C -19.3 °C 34063.2 hPa WSW 20.9 km/h 20.9 km/h 56 % 0 mm
22:43 -14.8 °C -19.3 °C 34063.2 hPa West 19.6 km/h 19.6 km/h 56 % 0 mm
22:48 -14.8 °C -19.2 °C 34063.2 hPa WSW 19.2 km/h 19.2 km/h 57 % 0 mm
22:50 -15.1 °C -18.8 °C 34029.3 hPa West 7.7 km/h 12.9 km/h 62 % 0 mm
22:52 -14.8 °C -19.2 °C 34063.2 hPa West 15 km/h 15 km/h 57 % 0 mm
22:54 -14.8 °C -19.2 °C 34063.2 hPa West 17.9 km/h 17.9 km/h 57 % 0 mm
22:59 -14.9 °C -19.2 °C 34063.2 hPa WSW 20.9 km/h 20.9 km/h 57 % 0 mm
23:04 -14.9 °C -19.2 °C 34063.2 hPa West 20.9 km/h 20.9 km/h 57 % 0 mm
23:09 -14.9 °C -19.2 °C 34063.2 hPa WSW 23.8 km/h 23.8 km/h 58 % 0 mm
23:10 -15.2 °C -18.8 °C 34029.3 hPa WSW 5.1 km/h 10.3 km/h 62 % 0 mm
23:14 -14.9 °C -19.2 °C 34063.2 hPa West 15 km/h 15 km/h 58 % 0 mm
23:15 -14.9 °C -19.2 °C 34063.2 hPa WSW 23.8 km/h 23.8 km/h 58 % 0 mm
23:20 -15 °C -19.2 °C 34063.2 hPa WNW 14 km/h 14 km/h 58 % 0 mm
23:21 -15 °C -19.2 °C 34063.2 hPa WSW 15 km/h 15 km/h 58 % 0 mm
23:26 -15 °C -19.2 °C 34063.2 hPa WSW 32.8 km/h 32.8 km/h 58 % 0 mm
23:27 -15 °C -19.2 °C 34063.2 hPa WSW 32.8 km/h 32.8 km/h 58 % 0 mm
23:30 -15 °C -19.2 °C 34063.2 hPa WSW 11.9 km/h 12.7 km/h 58 % 0 mm
23:32 -15 °C -19.2 °C 34063.2 hPa WNW 20.9 km/h 20.9 km/h 58 % 0 mm
23:36 -15 °C -19.2 °C 34063.2 hPa WSW 23.8 km/h 23.8 km/h 58 % 0 mm
23:38 -15 °C -19.2 °C 34063.2 hPa West 17.9 km/h 17.9 km/h 58 % 0 mm
23:43 -15 °C -19.2 °C 34063.2 hPa NNW 17.9 km/h 17.9 km/h 58 % 0 mm
23:48 -15 °C -19.2 °C 34063.2 hPa WNW 22 km/h 22 km/h 58 % 0 mm
23:49 -15 °C -19.2 °C 34063.2 hPa WNW 26.9 km/h 26.9 km/h 58 % 0 mm
23:53 -15 °C -19.2 °C 34063.2 hPa NNW 11.9 km/h 11.9 km/h 58 % 0 mm
23:58 -15 °C -19.2 °C 34063.2 hPa WSW 15.3 km/h 15.3 km/h 58 % 0 mm
Meteo Sesrovires
Elogis d' Weather Underground - 2 mb

Guio original per  Jim McMurry - jmcmurry@mwt.net Adaptat per a la plantilla per  Wim van der Kuil - Leuven-Template.eu

Trobareu la nostra informacio del temps tambe a:

Weather Underground

AWEKAS